createdAt,value
2022-10-13T00:01:14.114Z,91.75
2022-10-13T00:03:46.958Z,91.75
2022-10-13T00:06:25.147Z,91.80
2022-10-13T00:08:53.739Z,91.79
2022-10-13T00:11:25.663Z,91.75
2022-10-13T00:13:58.846Z,91.78
2022-10-13T00:16:30.781Z,91.79
2022-10-13T00:18:58.920Z,91.74
2022-10-13T00:21:28.223Z,91.83
2022-10-13T00:23:56.394Z,91.79
2022-10-13T00:26:26.464Z,91.80
2022-10-13T00:28:56.435Z,91.89
2022-10-13T00:31:29.287Z,91.77
2022-10-13T00:33:59.874Z,91.69
2022-10-13T00:36:28.670Z,91.66
2022-10-13T00:38:58.267Z,91.87
2022-10-13T00:41:26.227Z,91.77
2022-10-13T00:44:03.814Z,91.73
2022-10-13T00:46:36.164Z,91.62
2022-10-13T00:49:14.393Z,91.83
2022-10-13T00:51:50.551Z,91.69
2022-10-13T00:54:24.764Z,91.86
2022-10-13T00:56:54.306Z,91.99
2022-10-13T00:59:29.240Z,92.43
2022-10-13T01:01:59.891Z,92.67
2022-10-13T01:04:38.012Z,92.55
2022-10-13T01:07:07.102Z,92.60
2022-10-13T01:09:42.291Z,92.58
2022-10-13T01:12:43.434Z,92.66
2022-10-13T01:15:10.824Z,92.60
2022-10-13T01:17:53.293Z,92.69
2022-10-13T01:20:58.197Z,92.67
2022-10-13T01:24:47.615Z,92.77
2022-10-13T01:27:55.779Z,92.98
2022-10-13T01:30:23.601Z,92.88
2022-10-13T01:33:38.695Z,93.04
2022-10-13T01:36:35.680Z,93.25
2022-10-13T01:39:35.319Z,93.39
2022-10-13T01:42:22.289Z,93.46
2022-10-13T01:44:58.795Z,93.53
2022-10-13T01:47:28.895Z,93.66
2022-10-13T01:49:58.021Z,93.76
2022-10-13T01:52:33.438Z,93.94
2022-10-13T01:55:08.675Z,94.15
2022-10-13T01:57:43.371Z,94.20
2022-10-13T02:00:21.119Z,94.21
2022-10-13T02:03:29.914Z,94.15
2022-10-13T02:06:20.582Z,94.07
2022-10-13T02:09:06.350Z,93.90
2022-10-13T02:11:33.922Z,93.95
2022-10-13T02:14:29.917Z,93.73
2022-10-13T02:17:04.595Z,93.69
2022-10-13T02:19:37.418Z,93.70
2022-10-13T02:22:08.296Z,93.70
2022-10-13T02:24:36.026Z,93.70
2022-10-13T02:27:06.755Z,93.74
2022-10-13T02:29:35.043Z,93.80
2022-10-13T02:32:02.584Z,93.84
2022-10-13T02:34:30.128Z,93.85
2022-10-13T02:36:57.594Z,93.69
2022-10-13T02:39:25.089Z,93.71
2022-10-13T02:41:52.561Z,93.77
2022-10-13T02:44:21.020Z,93.82
2022-10-13T02:46:48.549Z,93.94
2022-10-13T02:49:16.072Z,94.03
2022-10-13T02:51:43.562Z,94.05
2022-10-13T02:54:11.018Z,94.03
2022-10-13T02:56:38.475Z,93.99
2022-10-13T02:59:06.037Z,93.96
2022-10-13T03:01:33.595Z,94.00
2022-10-13T03:04:01.172Z,93.94
2022-10-13T03:06:28.672Z,93.93
2022-10-13T03:08:56.264Z,93.92
2022-10-13T03:11:23.738Z,93.90
2022-10-13T03:13:51.270Z,93.92
2022-10-13T03:16:18.864Z,93.85
2022-10-13T03:18:46.387Z,93.94
2022-10-13T03:21:14.828Z,94.03
2022-10-13T03:23:42.343Z,93.92
2022-10-13T03:26:10.093Z,94.08
2022-10-13T03:28:37.766Z,94.05
2022-10-13T03:31:08.469Z,94.02
2022-10-13T03:33:36.003Z,93.89
2022-10-13T03:36:06.025Z,93.96
2022-10-13T03:38:35.446Z,93.95
2022-10-13T03:41:15.855Z,94.00
2022-10-13T03:43:45.408Z,94.00
2022-10-13T03:46:16.759Z,93.94
2022-10-13T03:48:47.492Z,93.94
2022-10-13T03:51:19.440Z,93.81
2022-10-13T03:53:48.898Z,93.81
2022-10-13T03:56:25.108Z,94.02
2022-10-13T03:58:55.443Z,94.14
2022-10-13T04:01:26.775Z,94.21
2022-10-13T04:03:56.011Z,94.32
2022-10-13T04:06:25.435Z,94.32
2022-10-13T04:08:53.176Z,94.28
2022-10-13T04:11:21.651Z,94.28
2022-10-13T04:13:52.783Z,94.25
2022-10-13T04:16:25.031Z,94.26
2022-10-13T04:19:01.464Z,94.32
2022-10-13T04:21:33.278Z,94.33
2022-10-13T04:24:02.051Z,94.25
2022-10-13T04:26:36.223Z,94.21
2022-10-13T04:29:12.289Z,94.29
2022-10-13T04:31:43.873Z,94.25
2022-10-13T04:34:12.236Z,94.24
2022-10-13T04:36:39.606Z,94.24
2022-10-13T04:39:09.685Z,94.23
2022-10-13T04:41:37.143Z,94.18
2022-10-13T04:44:04.665Z,94.16
2022-10-13T04:46:32.197Z,94.19
2022-10-13T04:48:59.691Z,94.19
2022-10-13T04:51:32.893Z,94.22
2022-10-13T04:54:03.205Z,94.23
2022-10-13T04:56:30.703Z,94.29
2022-10-13T04:59:05.839Z,94.33
2022-10-13T05:01:34.607Z,94.29
2022-10-13T05:04:04.480Z,94.29
2022-10-13T05:07:05.427Z,94.27
2022-10-13T05:09:28.936Z,94.36
2022-10-13T05:11:57.312Z,94.33
2022-10-13T05:14:24.918Z,94.31
2022-10-13T05:16:52.305Z,94.32
2022-10-13T05:19:20.365Z,94.35
2022-10-13T05:21:50.047Z,94.38
2022-10-13T05:24:17.556Z,94.48
2022-10-13T05:26:47.942Z,94.37
2022-10-13T05:29:15.500Z,94.36
2022-10-13T05:31:43.039Z,94.29
2022-10-13T05:34:11.269Z,94.31
2022-10-13T05:36:38.757Z,94.08
2022-10-13T05:39:10.341Z,93.49
2022-10-13T05:41:39.228Z,93.13
2022-10-13T05:44:16.650Z,92.64
2022-10-13T05:46:54.390Z,91.97
2022-10-13T05:49:21.955Z,91.26
2022-10-13T05:51:55.452Z,91.02
2022-10-13T05:54:39.455Z,90.40
2022-10-13T05:57:12.848Z,90.05
2022-10-13T05:59:49.501Z,89.54
2022-10-13T06:02:21.857Z,89.04
2022-10-13T06:04:53.933Z,88.50
2022-10-13T06:07:22.137Z,88.14
2022-10-13T06:09:50.390Z,87.62
2022-10-13T06:12:17.968Z,86.78
2022-10-13T06:14:45.601Z,85.93
2022-10-13T06:17:13.688Z,85.45
2022-10-13T06:19:45.352Z,83.35
2022-10-13T06:22:12.956Z,83.18
2022-10-13T06:24:40.435Z,81.97
2022-10-13T06:27:10.991Z,80.85
2022-10-13T06:29:38.614Z,79.99
2022-10-13T06:32:06.967Z,79.27
2022-10-13T06:34:34.520Z,77.90
2022-10-13T06:37:01.991Z,77.42
2022-10-13T06:39:29.594Z,77.38
2022-10-13T06:41:57.387Z,77.09
2022-10-13T06:44:32.408Z,76.14
2022-10-13T06:47:05.451Z,76.67
2022-10-13T06:49:33.283Z,76.81
2022-10-13T06:52:00.883Z,77.08
2022-10-13T06:54:28.503Z,76.01
2022-10-13T06:56:56.097Z,75.32
2022-10-13T06:59:23.654Z,73.60
2022-10-13T07:01:51.818Z,72.55
2022-10-13T07:04:23.047Z,72.67
2022-10-13T07:06:51.658Z,71.15
2022-10-13T07:09:20.406Z,68.60
2022-10-13T07:11:48.163Z,68.33
2022-10-13T07:14:15.921Z,68.08
2022-10-13T07:16:43.980Z,68.79
2022-10-13T07:19:11.569Z,68.66
2022-10-13T07:21:42.010Z,69.34
2022-10-13T07:24:11.460Z,67.72
2022-10-13T07:26:39.007Z,66.55
2022-10-13T07:29:07.540Z,66.76
2022-10-13T07:31:35.049Z,65.66
2022-10-13T07:34:04.681Z,64.19
2022-10-13T07:36:33.690Z,61.16
2022-10-13T07:39:03.240Z,59.44
2022-10-13T07:41:31.879Z,57.55
2022-10-13T07:43:59.431Z,59.48
2022-10-13T07:46:26.976Z,57.33
2022-10-13T07:48:55.167Z,55.09
2022-10-13T07:51:23.359Z,54.70
2022-10-13T07:53:51.182Z,55.83
2022-10-13T07:56:18.863Z,54.42
2022-10-13T07:58:47.752Z,53.50
2022-10-13T08:01:16.780Z,52.96
2022-10-13T08:03:48.962Z,49.56
2022-10-13T08:06:19.332Z,51.17
2022-10-13T08:08:47.850Z,50.01
2022-10-13T08:11:18.334Z,51.14
2022-10-13T08:13:52.800Z,54.83
2022-10-13T08:16:23.641Z,54.22
2022-10-13T08:18:51.274Z,55.37
2022-10-13T08:24:14.041Z,55.94
2022-10-13T08:26:43.179Z,55.07
2022-10-13T08:29:26.758Z,53.52
2022-10-13T08:31:54.750Z,52.32
2022-10-13T08:34:24.631Z,53.15
2022-10-13T08:36:56.181Z,53.02
2022-10-13T08:39:25.230Z,53.74
2022-10-13T08:41:55.083Z,53.15
2022-10-13T08:48:07.574Z,49.98
2022-10-13T08:50:44.260Z,46.89
2022-10-13T08:53:28.231Z,46.20
2022-10-13T08:56:09.643Z,49.48
2022-10-13T08:58:41.298Z,49.77
2022-10-13T09:01:10.833Z,48.90
2022-10-13T09:03:47.083Z,49.79
2022-10-13T09:06:28.605Z,49.71
2022-10-13T09:09:05.962Z,47.94
2022-10-13T09:11:43.663Z,48.84
2022-10-13T09:14:32.672Z,50.75
2022-10-13T09:17:23.797Z,50.51
2022-10-13T09:20:04.742Z,49.43
2022-10-13T09:22:38.457Z,47.00
2022-10-13T09:25:09.194Z,49.03
2022-10-13T09:27:58.226Z,51.04
2022-10-13T09:30:44.390Z,50.11
2022-10-13T09:33:11.989Z,50.26
2022-10-13T09:35:45.336Z,52.54
2022-10-13T09:38:22.396Z,53.02
2022-10-13T09:41:01.731Z,50.74
2022-10-13T09:43:47.820Z,51.64
2022-10-13T09:46:37.661Z,51.22
2022-10-13T09:49:31.678Z,52.13
2022-10-13T09:52:22.156Z,48.66
2022-10-13T09:55:32.825Z,44.38
2022-10-13T09:58:22.941Z,40.60
2022-10-13T10:00:53.912Z,40.27
2022-10-13T10:03:49.989Z,40.79
2022-10-13T10:06:19.058Z,42.84
2022-10-13T10:09:07.625Z,44.82
2022-10-13T10:11:43.935Z,45.68
2022-10-13T10:14:27.132Z,41.36
2022-10-13T10:17:22.910Z,42.83
2022-10-13T10:20:30.420Z,44.84
2022-10-13T10:23:22.222Z,45.84
2022-10-13T10:25:59.328Z,46.17
2022-10-13T10:28:45.642Z,48.19
2022-10-13T10:31:33.260Z,50.43
2022-10-13T10:34:14.834Z,53.69
2022-10-13T10:37:05.680Z,54.81
2022-10-13T10:40:19.591Z,54.85
2022-10-13T10:43:21.734Z,53.88
2022-10-13T10:45:49.765Z,54.34
2022-10-13T10:48:23.315Z,52.85
2022-10-13T10:50:54.862Z,48.42
2022-10-13T10:53:40.070Z,45.41
2022-10-13T10:56:19.388Z,44.31
2022-10-13T10:59:00.960Z,44.52
2022-10-13T11:01:48.308Z,42.92
2022-10-13T11:04:24.093Z,45.47
2022-10-13T11:06:51.543Z,48.03
2022-10-13T11:09:43.584Z,48.54
2022-10-13T11:12:46.254Z,53.09
2022-10-13T11:15:23.219Z,54.16
2022-10-13T11:17:51.595Z,53.61
2022-10-13T11:20:21.981Z,54.22
2022-10-13T11:22:58.540Z,55.52
2022-10-13T11:25:42.125Z,57.03
2022-10-13T11:28:21.771Z,55.92
2022-10-13T11:30:57.657Z,57.20
2022-10-13T11:33:40.480Z,56.53
2022-10-13T11:36:44.568Z,57.50
2022-10-13T11:42:34.261Z,59.72
2022-10-13T11:45:47.384Z,60.32
2022-10-13T11:48:23.568Z,60.22
2022-10-13T11:51:32.460Z,57.85
2022-10-13T11:54:14.691Z,54.50
2022-10-13T11:56:52.100Z,55.50
2022-10-13T11:59:29.318Z,56.33
2022-10-13T12:02:12.669Z,59.30
2022-10-13T12:04:46.303Z,59.56
2022-10-13T12:07:17.221Z,59.93
2022-10-13T12:09:57.194Z,59.00
2022-10-13T12:12:26.006Z,57.72
2022-10-13T12:14:58.717Z,57.60
2022-10-13T12:17:35.335Z,58.68
2022-10-13T12:20:22.431Z,58.10
2022-10-13T12:22:54.893Z,58.36
2022-10-13T12:25:27.136Z,57.82
2022-10-13T12:28:01.181Z,57.03
2022-10-13T12:30:36.309Z,58.30
2022-10-13T12:33:22.715Z,60.09
2022-10-13T12:35:50.323Z,60.67
2022-10-13T12:38:21.719Z,62.01
2022-10-13T12:40:53.532Z,63.36
2022-10-13T12:43:25.552Z,63.24
2022-10-13T12:45:53.122Z,62.72
2022-10-13T12:48:37.047Z,63.20
2022-10-13T12:51:27.900Z,63.31
2022-10-13T12:53:55.641Z,63.27
2022-10-13T12:56:32.489Z,63.42
2022-10-13T12:59:00.496Z,64.23
2022-10-13T13:01:35.218Z,64.01
2022-10-13T13:04:17.868Z,62.72
2022-10-13T13:07:02.460Z,62.81
2022-10-13T13:09:33.191Z,62.73
2022-10-13T13:12:12.761Z,62.65
2022-10-13T13:14:49.528Z,62.06
2022-10-13T13:17:23.521Z,64.14
2022-10-13T13:20:00.607Z,63.63
2022-10-13T13:22:28.205Z,64.18
2022-10-13T13:24:55.880Z,64.23
2022-10-13T13:27:35.778Z,65.02
2022-10-13T13:30:04.197Z,65.74
2022-10-13T13:32:33.126Z,65.67
2022-10-13T13:35:00.600Z,66.08
2022-10-13T13:37:38.475Z,66.20
2022-10-13T13:40:08.223Z,66.25
2022-10-13T13:42:35.678Z,66.71
2022-10-13T13:45:03.136Z,67.28
2022-10-13T13:47:31.637Z,67.88
2022-10-13T13:50:00.367Z,68.46
2022-10-13T13:52:27.883Z,69.41
2022-10-13T13:54:56.202Z,68.90
2022-10-13T13:57:23.777Z,69.30
2022-10-13T13:59:51.294Z,69.35
2022-10-13T14:02:22.044Z,69.71
2022-10-13T14:04:49.599Z,69.76
2022-10-13T14:07:18.269Z,70.10
2022-10-13T14:09:46.827Z,69.64
2022-10-13T14:12:14.343Z,69.35
2022-10-13T14:14:41.863Z,69.59
2022-10-13T14:17:10.959Z,69.35
2022-10-13T14:19:38.441Z,69.78
2022-10-13T14:22:09.298Z,69.77
2022-10-13T14:24:37.005Z,69.72
2022-10-13T14:27:05.530Z,70.47
2022-10-13T14:29:33.058Z,71.06
2022-10-13T14:32:00.584Z,71.98
2022-10-13T14:34:28.109Z,72.34
2022-10-13T14:36:55.772Z,72.57
2022-10-13T14:39:23.255Z,73.26
2022-10-13T14:41:50.747Z,73.46
2022-10-13T14:44:18.323Z,73.73
2022-10-13T14:46:45.944Z,73.36
2022-10-13T14:49:13.499Z,73.39
2022-10-13T14:51:43.324Z,73.67
2022-10-13T14:54:10.823Z,74.59
2022-10-13T14:56:38.492Z,75.37
2022-10-13T14:59:07.571Z,75.46
2022-10-13T15:01:41.519Z,75.93
2022-10-13T15:04:09.442Z,76.17
2022-10-13T15:06:39.627Z,76.55
2022-10-13T15:11:41.709Z,77.02
2022-10-13T15:14:09.876Z,77.34
2022-10-13T15:16:38.006Z,77.48
2022-10-13T15:19:06.011Z,77.78
2022-10-13T15:21:33.479Z,77.99
2022-10-13T15:24:01.538Z,78.38
2022-10-13T15:26:29.289Z,78.71
2022-10-13T15:28:56.893Z,78.85
2022-10-13T15:31:24.605Z,78.97
2022-10-13T15:33:54.023Z,79.20
2022-10-13T15:36:23.583Z,79.57
2022-10-13T15:38:51.787Z,79.97
2022-10-13T15:41:19.833Z,80.42
2022-10-13T15:43:47.937Z,80.63
2022-10-13T15:46:21.595Z,80.74
2022-10-13T15:48:54.144Z,80.88
2022-10-13T15:51:24.516Z,81.49
2022-10-13T15:53:52.226Z,81.73
2022-10-13T15:56:21.056Z,82.11
2022-10-13T15:58:48.514Z,82.00
2022-10-13T16:01:16.133Z,82.36
2022-10-13T16:03:44.094Z,82.37
2022-10-13T16:06:13.570Z,82.46
2022-10-13T16:08:44.375Z,82.47
2022-10-13T16:11:15.773Z,82.41
2022-10-13T16:13:51.981Z,82.57
2022-10-13T16:16:20.124Z,82.46
2022-10-13T16:18:47.851Z,82.61
2022-10-13T16:21:19.161Z,82.64
2022-10-13T16:23:48.123Z,82.56
2022-10-13T16:26:17.771Z,82.53
2022-10-13T16:28:46.710Z,82.47
2022-10-13T16:31:17.017Z,82.58
2022-10-13T16:33:45.984Z,82.76
2022-10-13T16:36:17.061Z,82.88
2022-10-13T16:38:46.625Z,82.82
2022-10-13T16:41:18.255Z,82.85
2022-10-13T16:43:47.086Z,82.93
2022-10-13T16:46:18.838Z,82.87
2022-10-13T16:48:47.543Z,83.00
2022-10-13T16:51:22.470Z,83.35
2022-10-13T16:53:52.755Z,83.49
2022-10-13T16:56:24.006Z,83.90
2022-10-13T16:59:01.469Z,84.19
2022-10-13T17:01:31.471Z,84.81
2022-10-13T17:03:59.805Z,84.75
2022-10-13T17:06:28.694Z,85.08
2022-10-13T17:09:02.835Z,85.07
2022-10-13T17:11:32.860Z,84.91
2022-10-13T17:14:02.150Z,85.32
2022-10-13T17:16:33.875Z,85.91
2022-10-13T17:19:02.534Z,85.70
2022-10-13T17:21:47.983Z,86.04
2022-10-13T17:24:17.212Z,86.38
2022-10-13T17:26:44.779Z,86.27
2022-10-13T17:29:12.349Z,86.72
2022-10-13T17:31:39.861Z,87.05
2022-10-13T17:34:09.187Z,87.07
2022-10-13T17:36:36.680Z,87.36
2022-10-13T17:39:12.172Z,87.58
2022-10-13T17:41:43.197Z,88.10
2022-10-13T17:44:11.720Z,88.35
2022-10-13T17:46:39.793Z,88.69
2022-10-13T17:49:10.990Z,88.96
2022-10-13T17:51:43.459Z,89.32
2022-10-13T17:54:16.163Z,89.45
2022-10-13T17:56:45.254Z,89.54
2022-10-13T17:59:17.254Z,89.67
2022-10-13T18:01:46.145Z,89.81
2022-10-13T18:04:17.967Z,89.95
2022-10-13T18:06:46.116Z,89.85
2022-10-13T18:09:19.003Z,89.99
2022-10-13T18:11:51.097Z,90.08
2022-10-13T18:14:21.932Z,90.24
2022-10-13T18:16:53.480Z,90.36
2022-10-13T18:19:21.759Z,90.58
2022-10-13T18:21:49.572Z,90.70
2022-10-13T18:24:17.214Z,90.74
2022-10-13T18:26:45.583Z,90.79
2022-10-13T18:29:13.359Z,90.77
2022-10-13T18:31:42.260Z,90.77
2022-10-13T18:34:14.975Z,90.76
2022-10-13T18:36:50.330Z,90.78
2022-10-13T18:39:25.094Z,90.91
2022-10-13T18:41:54.954Z,91.25
2022-10-13T18:44:23.898Z,91.38
2022-10-13T18:46:54.876Z,91.37
2022-10-13T18:49:30.689Z,91.41
2022-10-13T18:52:00.403Z,91.73
2022-10-13T18:54:29.262Z,91.88
2022-10-13T18:56:57.202Z,92.05
2022-10-13T18:59:24.951Z,91.95
2022-10-13T19:01:52.499Z,92.01
2022-10-13T19:04:21.529Z,92.13
2022-10-13T19:06:51.150Z,92.21
2022-10-13T19:09:19.506Z,92.36
2022-10-13T19:11:46.955Z,92.47
2022-10-13T19:14:16.905Z,92.53
2022-10-13T19:16:44.603Z,92.73
2022-10-13T19:19:12.636Z,92.63
2022-10-13T19:21:41.294Z,92.68
2022-10-13T19:24:10.707Z,92.87
2022-10-13T19:26:38.393Z,92.90
2022-10-13T19:29:12.879Z,92.78
2022-10-13T19:31:42.601Z,92.84
2022-10-13T19:34:12.619Z,92.81
2022-10-13T19:36:43.894Z,92.80
2022-10-13T19:39:22.305Z,92.82
2022-10-13T19:41:53.305Z,92.86
2022-10-13T19:44:23.853Z,92.89
2022-10-13T19:46:53.354Z,92.72
2022-10-13T19:49:25.960Z,92.75
2022-10-13T19:51:54.804Z,92.90
2022-10-13T19:54:23.007Z,92.85
2022-10-13T19:56:51.799Z,92.83
2022-10-13T19:59:19.722Z,92.96
2022-10-13T20:01:47.786Z,93.04
2022-10-13T20:04:18.493Z,92.98
2022-10-13T20:06:48.971Z,92.89
2022-10-13T20:09:18.274Z,92.93
2022-10-13T20:11:48.419Z,92.96
2022-10-13T20:14:17.625Z,92.98
2022-10-13T20:16:45.462Z,93.08
2022-10-13T20:19:16.222Z,93.15
2022-10-13T20:21:47.947Z,93.20
2022-10-13T20:24:15.883Z,93.23
2022-10-13T20:26:43.364Z,93.25
2022-10-13T20:29:10.947Z,93.14
2022-10-13T20:31:38.635Z,93.21
2022-10-13T20:34:06.113Z,93.35
2022-10-13T20:36:38.516Z,93.30
2022-10-13T20:39:08.525Z,93.20
2022-10-13T20:41:36.649Z,93.20
2022-10-13T20:44:04.440Z,93.28
2022-10-13T20:46:34.327Z,93.31
2022-10-13T20:49:11.324Z,93.23
2022-10-13T20:51:40.234Z,93.41
2022-10-13T20:54:07.936Z,93.43
2022-10-13T20:56:35.792Z,93.43
2022-10-13T20:59:07.223Z,93.38
2022-10-13T21:01:35.628Z,93.29
2022-10-13T21:04:03.778Z,93.27
2022-10-13T21:06:31.176Z,93.30
2022-10-13T21:09:01.151Z,93.40
2022-10-13T21:11:28.678Z,93.36
2022-10-13T21:13:57.276Z,93.40
2022-10-13T21:16:27.994Z,93.42
2022-10-13T21:18:57.817Z,93.50
2022-10-13T21:21:28.807Z,93.35
2022-10-13T21:24:03.631Z,93.43
2022-10-13T21:26:32.949Z,93.55
2022-10-13T21:29:01.770Z,93.39
2022-10-13T21:31:29.854Z,93.40
2022-10-13T21:33:57.975Z,93.55
2022-10-13T21:36:30.688Z,93.60
2022-10-13T21:39:02.630Z,93.53
2022-10-13T21:41:30.717Z,93.51
2022-10-13T21:43:58.287Z,93.60
2022-10-13T21:46:34.360Z,93.63
2022-10-13T21:49:05.581Z,93.75
2022-10-13T21:51:37.640Z,93.74
2022-10-13T21:54:12.563Z,93.78
2022-10-13T21:56:41.218Z,93.73
2022-10-13T21:59:11.724Z,93.51
2022-10-13T22:01:39.740Z,93.59
2022-10-13T22:04:14.588Z,93.68
2022-10-13T22:06:43.517Z,93.68
2022-10-13T22:09:11.356Z,93.76
2022-10-13T22:11:39.792Z,93.82
2022-10-13T22:14:13.209Z,93.73
2022-10-13T22:16:45.546Z,93.64
2022-10-13T22:19:14.083Z,93.65
2022-10-13T22:21:45.557Z,93.50
2022-10-13T22:24:16.809Z,93.68
2022-10-13T22:26:46.499Z,93.65
2022-10-13T22:29:19.390Z,93.76
2022-10-13T22:31:48.433Z,93.68
2022-10-13T22:34:17.104Z,93.46
2022-10-13T22:36:45.369Z,93.48
2022-10-13T22:39:13.804Z,93.59
2022-10-13T22:41:41.847Z,93.65
2022-10-13T22:44:10.140Z,93.74
2022-10-13T22:46:38.464Z,94.09
2022-10-13T22:49:07.671Z,94.47
2022-10-13T22:51:36.732Z,94.44
2022-10-13T22:54:05.617Z,94.50
2022-10-13T22:56:34.363Z,94.48
2022-10-13T22:59:05.962Z,94.36
2022-10-13T23:01:34.709Z,94.04
2022-10-13T23:04:02.516Z,93.69
2022-10-13T23:06:33.523Z,93.39
2022-10-13T23:09:07.097Z,93.48
2022-10-13T23:11:34.799Z,93.74
2022-10-13T23:14:06.247Z,93.85
2022-10-13T23:16:33.862Z,93.97
2022-10-13T23:19:01.547Z,94.07
2022-10-13T23:21:30.771Z,94.26
2022-10-13T23:24:02.966Z,94.17
2022-10-13T23:26:32.115Z,93.92
2022-10-13T23:29:00.374Z,93.85
2022-10-13T23:31:28.677Z,93.98
2022-10-13T23:33:57.124Z,93.90
2022-10-13T23:36:26.866Z,93.69
2022-10-13T23:39:01.194Z,93.74
2022-10-13T23:41:29.186Z,93.50
2022-10-13T23:43:57.270Z,93.47
2022-10-13T23:46:25.270Z,93.32
2022-10-13T23:48:52.796Z,93.19
2022-10-13T23:51:23.532Z,93.07
2022-10-13T23:53:52.074Z,93.27
2022-10-13T23:56:20.200Z,93.32
2022-10-13T23:58:48.326Z,93.56
